sensor_id;sensor_type;location;lat;lon;timestamp;temperature;humidity
27858;DHT22;16852;51.446;6.528;2023-07-13T00:01:26;20.40;99.10
27858;DHT22;16852;51.446;6.528;2023-07-13T00:03:27;20.40;98.90
27858;DHT22;16852;51.446;6.528;2023-07-13T00:05:28;20.20;99.80
27858;DHT22;16852;51.446;6.528;2023-07-13T00:07:28;20.10;98.70
27858;DHT22;16852;51.446;6.528;2023-07-13T00:09:29;20.10;99.00
27858;DHT22;16852;51.446;6.528;2023-07-13T00:11:29;20.00;99.50
27858;DHT22;16852;51.446;6.528;2023-07-13T00:13:30;19.90;99.60
27858;DHT22;16852;51.446;6.528;2023-07-13T00:15:31;19.90;99.90
27858;DHT22;16852;51.446;6.528;2023-07-13T00:17:32;19.90;99.90
27858;DHT22;16852;51.446;6.528;2023-07-13T00:19:33;19.90;99.90
27858;DHT22;16852;51.446;6.528;2023-07-13T00:21:36;19.80;99.90
27858;DHT22;16852;51.446;6.528;2023-07-13T00:23:39;19.80;99.90
27858;DHT22;16852;51.446;6.528;2023-07-13T00:25:40;19.80;99.90
27858;DHT22;16852;51.446;6.528;2023-07-13T00:27:42;19.80;99.90
27858;DHT22;16852;51.446;6.528;2023-07-13T00:29:44;19.80;99.90
27858;DHT22;16852;51.446;6.528;2023-07-13T00:31:45;19.70;99.90
27858;DHT22;16852;51.446;6.528;2023-07-13T00:33:46;19.70;99.90
27858;DHT22;16852;51.446;6.528;2023-07-13T00:35:47;19.70;99.90
27858;DHT22;16852;51.446;6.528;2023-07-13T00:37:48;19.80;99.50
27858;DHT22;16852;51.446;6.528;2023-07-13T00:39:49;19.70;99.90
27858;DHT22;16852;51.446;6.528;2023-07-13T00:41:50;19.70;99.90
27858;DHT22;16852;51.446;6.528;2023-07-13T00:43:50;19.70;99.90
27858;DHT22;16852;51.446;6.528;2023-07-13T00:47:51;19.70;99.90
27858;DHT22;16852;51.446;6.528;2023-07-13T00:49:52;19.70;99.90
27858;DHT22;16852;51.446;6.528;2023-07-13T00:51:59;19.70;99.90
27858;DHT22;16852;51.446;6.528;2023-07-13T00:54:05;19.80;99.90
27858;DHT22;16852;51.446;6.528;2023-07-13T00:56:07;19.70;99.90
27858;DHT22;16852;51.446;6.528;2023-07-13T00:58:09;19.70;99.90
27858;DHT22;16852;51.446;6.528;2023-07-13T01:00:10;19.70;99.90
27858;DHT22;16852;51.446;6.528;2023-07-13T01:02:12;19.70;99.90
27858;DHT22;16852;51.446;6.528;2023-07-13T01:04:13;19.70;99.90
27858;DHT22;16852;51.446;6.528;2023-07-13T01:06:15;19.70;99.90
27858;DHT22;16852;51.446;6.528;2023-07-13T01:08:17;19.70;99.90
27858;DHT22;16852;51.446;6.528;2023-07-13T01:10:22;19.70;99.90
27858;DHT22;16852;51.446;6.528;2023-07-13T01:12:23;19.70;99.90
27858;DHT22;16852;51.446;6.528;2023-07-13T01:14:24;19.70;99.90
27858;DHT22;16852;51.446;6.528;2023-07-13T01:16:27;19.60;99.90
27858;DHT22;16852;51.446;6.528;2023-07-13T01:18:28;19.60;99.90
27858;DHT22;16852;51.446;6.528;2023-07-13T01:20:29;19.50;99.90
27858;DHT22;16852;51.446;6.528;2023-07-13T01:22:30;19.50;99.90
27858;DHT22;16852;51.446;6.528;2023-07-13T01:24:32;19.50;99.90
27858;DHT22;16852;51.446;6.528;2023-07-13T01:26:33;19.40;99.90
27858;DHT22;16852;51.446;6.528;2023-07-13T01:28:33;19.40;99.90
27858;DHT22;16852;51.446;6.528;2023-07-13T01:30:38;19.40;99.90
27858;DHT22;16852;51.446;6.528;2023-07-13T01:32:40;19.40;99.90
27858;DHT22;16852;51.446;6.528;2023-07-13T01:34:42;19.40;99.90
27858;DHT22;16852;51.446;6.528;2023-07-13T01:36:42;19.30;99.90
27858;DHT22;16852;51.446;6.528;2023-07-13T01:38:43;19.30;99.90
27858;DHT22;16852;51.446;6.528;2023-07-13T01:40:44;19.30;99.90
27858;DHT22;16852;51.446;6.528;2023-07-13T01:42:44;19.30;99.90
27858;DHT22;16852;51.446;6.528;2023-07-13T01:44:45;19.30;99.90
27858;DHT22;16852;51.446;6.528;2023-07-13T01:46:45;19.20;99.90
27858;DHT22;16852;51.446;6.528;2023-07-13T01:48:46;19.20;99.90
27858;DHT22;16852;51.446;6.528;2023-07-13T01:50:47;19.10;99.90
27858;DHT22;16852;51.446;6.528;2023-07-13T01:52:48;19.10;99.90
27858;DHT22;16852;51.446;6.528;2023-07-13T01:54:48;19.10;99.90
27858;DHT22;16852;51.446;6.528;2023-07-13T01:56:49;19.00;99.90
27858;DHT22;16852;51.446;6.528;2023-07-13T01:58:49;19.00;99.90
27858;DHT22;16852;51.446;6.528;2023-07-13T02:00:51;19.00;99.90
27858;DHT22;16852;51.446;6.528;2023-07-13T02:02:52;18.90;99.90
27858;DHT22;16852;51.446;6.528;2023-07-13T02:04:52;18.90;99.90
27858;DHT22;16852;51.446;6.528;2023-07-13T02:06:53;18.90;99.90
27858;DHT22;16852;51.446;6.528;2023-07-13T02:08:55;18.90;99.90
27858;DHT22;16852;51.446;6.528;2023-07-13T02:10:56;18.90;99.90
27858;DHT22;16852;51.446;6.528;2023-07-13T02:12:57;18.90;99.90
27858;DHT22;16852;51.446;6.528;2023-07-13T02:14:58;18.90;99.90
27858;DHT22;16852;51.446;6.528;2023-07-13T02:16:59;18.90;99.90
27858;DHT22;16852;51.446;6.528;2023-07-13T02:18:59;18.90;99.90
27858;DHT22;16852;51.446;6.528;2023-07-13T02:21:00;18.80;99.90
27858;DHT22;16852;51.446;6.528;2023-07-13T02:23:02;18.80;99.90
27858;DHT22;16852;51.446;6.528;2023-07-13T02:25:03;18.70;99.90
27858;DHT22;16852;51.446;6.528;2023-07-13T02:27:04;18.70;99.90
27858;DHT22;16852;51.446;6.528;2023-07-13T02:29:04;18.70;99.90
27858;DHT22;16852;51.446;6.528;2023-07-13T02:31:07;18.70;99.90
27858;DHT22;16852;51.446;6.528;2023-07-13T02:33:08;18.60;99.90
27858;DHT22;16852;51.446;6.528;2023-07-13T02:35:09;18.60;99.90
27858;DHT22;16852;51.446;6.528;2023-07-13T02:37:09;18.70;99.90
27858;DHT22;16852;51.446;6.528;2023-07-13T02:39:11;18.70;99.90
27858;DHT22;16852;51.446;6.528;2023-07-13T02:41:13;18.70;99.90
27858;DHT22;16852;51.446;6.528;2023-07-13T02:43:14;18.70;99.90
27858;DHT22;16852;51.446;6.528;2023-07-13T02:45:14;18.70;99.90
27858;DHT22;16852;51.446;6.528;2023-07-13T02:47:15;18.70;99.90
27858;DHT22;16852;51.446;6.528;2023-07-13T02:49:15;18.60;99.90
27858;DHT22;16852;51.446;6.528;2023-07-13T02:51:16;18.60;99.90
27858;DHT22;16852;51.446;6.528;2023-07-13T02:53:16;18.60;99.90
27858;DHT22;16852;51.446;6.528;2023-07-13T02:55:17;18.60;99.90
27858;DHT22;16852;51.446;6.528;2023-07-13T02:57:18;18.50;99.90
27858;DHT22;16852;51.446;6.528;2023-07-13T02:59:18;18.50;99.90
27858;DHT22;16852;51.446;6.528;2023-07-13T03:01:19;18.50;99.90
27858;DHT22;16852;51.446;6.528;2023-07-13T03:03:22;18.50;99.90
27858;DHT22;16852;51.446;6.528;2023-07-13T03:05:22;18.50;99.90
27858;DHT22;16852;51.446;6.528;2023-07-13T03:07:23;18.40;99.90
27858;DHT22;16852;51.446;6.528;2023-07-13T03:09:24;18.40;99.90
27858;DHT22;16852;51.446;6.528;2023-07-13T03:11:25;18.40;99.90
27858;DHT22;16852;51.446;6.528;2023-07-13T03:13:26;18.40;99.90
27858;DHT22;16852;51.446;6.528;2023-07-13T03:15:27;18.40;99.90
27858;DHT22;16852;51.446;6.528;2023-07-13T03:17:27;18.40;99.90
27858;DHT22;16852;51.446;6.528;2023-07-13T03:19:28;18.40;99.90
27858;DHT22;16852;51.446;6.528;2023-07-13T03:21:29;18.30;99.90
27858;DHT22;16852;51.446;6.528;2023-07-13T03:23:29;18.40;99.90
27858;DHT22;16852;51.446;6.528;2023-07-13T03:25:30;18.30;99.90
27858;DHT22;16852;51.446;6.528;2023-07-13T03:27:30;18.40;99.90
27858;DHT22;16852;51.446;6.528;2023-07-13T03:29:31;18.30;99.90
27858;DHT22;16852;51.446;6.528;2023-07-13T03:31:34;18.30;99.90
27858;DHT22;16852;51.446;6.528;2023-07-13T03:33:36;18.30;99.90
27858;DHT22;16852;51.446;6.528;2023-07-13T03:35:40;18.20;99.90
27858;DHT22;16852;51.446;6.528;2023-07-13T03:37:41;18.30;99.90
27858;DHT22;16852;51.446;6.528;2023-07-13T03:39:42;18.30;99.90
27858;DHT22;16852;51.446;6.528;2023-07-13T03:41:43;18.20;99.90
27858;DHT22;16852;51.446;6.528;2023-07-13T03:43:43;18.30;99.90
27858;DHT22;16852;51.446;6.528;2023-07-13T03:45:44;18.20;99.90
27858;DHT22;16852;51.446;6.528;2023-07-13T03:47:45;18.20;99.90
27858;DHT22;16852;51.446;6.528;2023-07-13T03:49:45;18.20;99.90
27858;DHT22;16852;51.446;6.528;2023-07-13T03:51:46;18.20;99.90
27858;DHT22;16852;51.446;6.528;2023-07-13T03:53:47;18.20;99.90
27858;DHT22;16852;51.446;6.528;2023-07-13T03:55:48;18.20;99.90
27858;DHT22;16852;51.446;6.528;2023-07-13T03:57:57;18.10;99.90
27858;DHT22;16852;51.446;6.528;2023-07-13T03:59:58;18.20;99.90
27858;DHT22;16852;51.446;6.528;2023-07-13T04:02:00;18.20;99.90
27858;DHT22;16852;51.446;6.528;2023-07-13T04:04:00;18.20;99.90
27858;DHT22;16852;51.446;6.528;2023-07-13T04:06:03;18.20;99.90
27858;DHT22;16852;51.446;6.528;2023-07-13T04:08:04;18.20;99.90
27858;DHT22;16852;51.446;6.528;2023-07-13T04:10:05;18.10;99.90
27858;DHT22;16852;51.446;6.528;2023-07-13T04:12:06;18.10;99.90
27858;DHT22;16852;51.446;6.528;2023-07-13T04:14:07;18.10;99.90
27858;DHT22;16852;51.446;6.528;2023-07-13T04:16:07;18.10;99.90
27858;DHT22;16852;51.446;6.528;2023-07-13T04:18:08;18.10;99.90
27858;DHT22;16852;51.446;6.528;2023-07-13T04:20:09;18.10;99.90
27858;DHT22;16852;51.446;6.528;2023-07-13T04:22:10;18.10;99.90
27858;DHT22;16852;51.446;6.528;2023-07-13T04:24:10;18.00;99.90
27858;DHT22;16852;51.446;6.528;2023-07-13T04:26:11;18.10;99.90
27858;DHT22;16852;51.446;6.528;2023-07-13T04:28:12;18.10;99.90
27858;DHT22;16852;51.446;6.528;2023-07-13T04:30:13;18.10;99.90
27858;DHT22;16852;51.446;6.528;2023-07-13T04:32:13;18.10;99.90
27858;DHT22;16852;51.446;6.528;2023-07-13T04:34:14;18.00;99.90
27858;DHT22;16852;51.446;6.528;2023-07-13T04:36:16;18.10;99.90
27858;DHT22;16852;51.446;6.528;2023-07-13T04:38:16;18.10;99.90
27858;DHT22;16852;51.446;6.528;2023-07-13T04:40:17;18.00;99.90
27858;DHT22;16852;51.446;6.528;2023-07-13T04:42:18;18.00;99.90
27858;DHT22;16852;51.446;6.528;2023-07-13T04:44:19;17.90;99.90
27858;DHT22;16852;51.446;6.528;2023-07-13T04:46:20;18.00;99.90
27858;DHT22;16852;51.446;6.528;2023-07-13T04:48:21;18.00;99.90
27858;DHT22;16852;51.446;6.528;2023-07-13T04:50:22;17.90;99.90
27858;DHT22;16852;51.446;6.528;2023-07-13T04:52:24;18.00;99.90
27858;DHT22;16852;51.446;6.528;2023-07-13T04:54:24;18.00;99.90
27858;DHT22;16852;51.446;6.528;2023-07-13T04:56:26;17.90;99.90
27858;DHT22;16852;51.446;6.528;2023-07-13T04:58:27;17.90;99.90
27858;DHT22;16852;51.446;6.528;2023-07-13T05:00:29;18.00;99.90
27858;DHT22;16852;51.446;6.528;2023-07-13T05:02:29;18.00;99.90
27858;DHT22;16852;51.446;6.528;2023-07-13T05:04:31;18.00;99.90
27858;DHT22;16852;51.446;6.528;2023-07-13T05:06:32;18.00;99.90
27858;DHT22;16852;51.446;6.528;2023-07-13T05:08:33;18.00;99.90
27858;DHT22;16852;51.446;6.528;2023-07-13T05:10:35;18.00;99.90
27858;DHT22;16852;51.446;6.528;2023-07-13T05:12:36;18.10;99.90
27858;DHT22;16852;51.446;6.528;2023-07-13T05:14:36;18.00;99.90
27858;DHT22;16852;51.446;6.528;2023-07-13T05:16:37;18.00;99.90
27858;DHT22;16852;51.446;6.528;2023-07-13T05:18:37;18.00;99.90
27858;DHT22;16852;51.446;6.528;2023-07-13T05:20:38;18.00;99.90
27858;DHT22;16852;51.446;6.528;2023-07-13T05:22:39;18.00;99.90
27858;DHT22;16852;51.446;6.528;2023-07-13T05:24:39;18.00;99.90
27858;DHT22;16852;51.446;6.528;2023-07-13T05:26:40;18.00;99.90
27858;DHT22;16852;51.446;6.528;2023-07-13T05:28:40;18.00;99.90
27858;DHT22;16852;51.446;6.528;2023-07-13T05:30:46;18.00;99.90
27858;DHT22;16852;51.446;6.528;2023-07-13T05:32:47;18.00;99.90
27858;DHT22;16852;51.446;6.528;2023-07-13T05:34:47;18.00;99.90
27858;DHT22;16852;51.446;6.528;2023-07-13T05:36:48;18.00;99.90
27858;DHT22;16852;51.446;6.528;2023-07-13T05:38:49;18.00;99.90
27858;DHT22;16852;51.446;6.528;2023-07-13T05:40:50;18.10;99.90
27858;DHT22;16852;51.446;6.528;2023-07-13T05:42:51;18.10;99.90
27858;DHT22;16852;51.446;6.528;2023-07-13T05:44:51;18.10;99.90
27858;DHT22;16852;51.446;6.528;2023-07-13T05:46:52;18.20;99.90
27858;DHT22;16852;51.446;6.528;2023-07-13T05:48:53;18.20;99.90
27858;DHT22;16852;51.446;6.528;2023-07-13T05:50:53;18.20;99.90
27858;DHT22;16852;51.446;6.528;2023-07-13T05:52:54;18.20;99.90
27858;DHT22;16852;51.446;6.528;2023-07-13T05:54:55;18.30;99.90
27858;DHT22;16852;51.446;6.528;2023-07-13T05:56:55;18.30;99.90
27858;DHT22;16852;51.446;6.528;2023-07-13T05:58:56;18.30;99.90
27858;DHT22;16852;51.446;6.528;2023-07-13T06:01:06;18.40;99.90
27858;DHT22;16852;51.446;6.528;2023-07-13T06:03:07;18.60;99.90
27858;DHT22;16852;51.446;6.528;2023-07-13T06:05:08;18.90;99.90
27858;DHT22;16852;51.446;6.528;2023-07-13T06:07:09;19.20;99.90
27858;DHT22;16852;51.446;6.528;2023-07-13T06:09:09;19.60;99.90
27858;DHT22;16852;51.446;6.528;2023-07-13T06:11:17;19.80;99.90
27858;DHT22;16852;51.446;6.528;2023-07-13T06:13:18;20.00;99.90
27858;DHT22;16852;51.446;6.528;2023-07-13T06:15:19;20.10;99.90
27858;DHT22;16852;51.446;6.528;2023-07-13T06:17:20;20.10;99.90
27858;DHT22;16852;51.446;6.528;2023-07-13T06:19:20;20.00;99.90
27858;DHT22;16852;51.446;6.528;2023-07-13T06:21:22;20.00;99.90
27858;DHT22;16852;51.446;6.528;2023-07-13T06:23:24;19.90;99.90
27858;DHT22;16852;51.446;6.528;2023-07-13T06:25:26;19.80;99.90
27858;DHT22;16852;51.446;6.528;2023-07-13T06:27:27;19.90;99.90
27858;DHT22;16852;51.446;6.528;2023-07-13T06:29:27;19.90;99.90
27858;DHT22;16852;51.446;6.528;2023-07-13T06:31:28;19.90;99.90
27858;DHT22;16852;51.446;6.528;2023-07-13T06:33:29;20.00;99.90
27858;DHT22;16852;51.446;6.528;2023-07-13T06:35:29;19.90;99.90
27858;DHT22;16852;51.446;6.528;2023-07-13T06:37:30;19.90;99.90
27858;DHT22;16852;51.446;6.528;2023-07-13T06:39:30;19.80;99.90
27858;DHT22;16852;51.446;6.528;2023-07-13T06:41:31;19.80;99.90
27858;DHT22;16852;51.446;6.528;2023-07-13T06:43:33;19.70;99.90
27858;DHT22;16852;51.446;6.528;2023-07-13T06:45:42;19.80;99.90
27858;DHT22;16852;51.446;6.528;2023-07-13T06:47:42;19.70;99.90
27858;DHT22;16852;51.446;6.528;2023-07-13T06:49:43;19.70;99.90
27858;DHT22;16852;51.446;6.528;2023-07-13T06:51:43;19.60;99.90
27858;DHT22;16852;51.446;6.528;2023-07-13T06:53:44;19.60;99.90
27858;DHT22;16852;51.446;6.528;2023-07-13T06:55:45;19.60;99.90
27858;DHT22;16852;51.446;6.528;2023-07-13T06:57:46;19.70;99.90
27858;DHT22;16852;51.446;6.528;2023-07-13T06:59:47;19.60;99.90
27858;DHT22;16852;51.446;6.528;2023-07-13T07:01:47;19.50;99.90
27858;DHT22;16852;51.446;6.528;2023-07-13T07:03:48;19.50;99.90
27858;DHT22;16852;51.446;6.528;2023-07-13T07:05:48;19.50;99.90
27858;DHT22;16852;51.446;6.528;2023-07-13T07:07:50;19.50;99.90
27858;DHT22;16852;51.446;6.528;2023-07-13T07:09:51;19.40;99.90
27858;DHT22;16852;51.446;6.528;2023-07-13T07:11:51;19.50;99.90
27858;DHT22;16852;51.446;6.528;2023-07-13T07:13:53;19.50;99.90
27858;DHT22;16852;51.446;6.528;2023-07-13T07:15:54;19.50;99.90
27858;DHT22;16852;51.446;6.528;2023-07-13T07:17:54;19.60;99.90
27858;DHT22;16852;51.446;6.528;2023-07-13T07:19:55;19.50;99.90
27858;DHT22;16852;51.446;6.528;2023-07-13T07:21:55;19.40;99.90
27858;DHT22;16852;51.446;6.528;2023-07-13T07:23:56;19.40;99.90
27858;DHT22;16852;51.446;6.528;2023-07-13T07:25:57;19.40;99.90
27858;DHT22;16852;51.446;6.528;2023-07-13T07:27:58;19.50;99.90
27858;DHT22;16852;51.446;6.528;2023-07-13T07:29:59;19.40;99.90
27858;DHT22;16852;51.446;6.528;2023-07-13T07:32:00;19.40;99.90
27858;DHT22;16852;51.446;6.528;2023-07-13T07:34:01;19.40;99.90
27858;DHT22;16852;51.446;6.528;2023-07-13T07:36:02;19.30;99.90
27858;DHT22;16852;51.446;6.528;2023-07-13T07:38:04;19.40;99.90
27858;DHT22;16852;51.446;6.528;2023-07-13T07:40:05;19.40;99.90
27858;DHT22;16852;51.446;6.528;2023-07-13T07:42:06;19.40;99.90
27858;DHT22;16852;51.446;6.528;2023-07-13T07:44:07;19.40;99.90
27858;DHT22;16852;51.446;6.528;2023-07-13T07:46:10;19.40;99.90
27858;DHT22;16852;51.446;6.528;2023-07-13T07:48:10;19.50;99.90
27858;DHT22;16852;51.446;6.528;2023-07-13T07:50:11;19.40;99.90
27858;DHT22;16852;51.446;6.528;2023-07-13T07:52:12;19.40;99.90
27858;DHT22;16852;51.446;6.528;2023-07-13T07:54:12;19.50;99.90
27858;DHT22;16852;51.446;6.528;2023-07-13T07:56:19;19.50;99.90
27858;DHT22;16852;51.446;6.528;2023-07-13T07:58:20;19.60;99.90
27858;DHT22;16852;51.446;6.528;2023-07-13T08:00:21;19.60;99.90
27858;DHT22;16852;51.446;6.528;2023-07-13T08:02:21;19.70;99.90
27858;DHT22;16852;51.446;6.528;2023-07-13T08:04:22;19.70;99.90
27858;DHT22;16852;51.446;6.528;2023-07-13T08:06:23;19.70;99.90
27858;DHT22;16852;51.446;6.528;2023-07-13T08:08:25;19.80;99.90
27858;DHT22;16852;51.446;6.528;2023-07-13T08:10:26;19.80;99.90
27858;DHT22;16852;51.446;6.528;2023-07-13T08:12:27;19.80;99.90
27858;DHT22;16852;51.446;6.528;2023-07-13T08:14:27;19.90;99.90
27858;DHT22;16852;51.446;6.528;2023-07-13T08:16:28;19.90;99.90
27858;DHT22;16852;51.446;6.528;2023-07-13T08:18:28;19.90;99.90
27858;DHT22;16852;51.446;6.528;2023-07-13T08:20:29;19.90;99.90
27858;DHT22;16852;51.446;6.528;2023-07-13T08:22:30;19.90;99.90
27858;DHT22;16852;51.446;6.528;2023-07-13T08:24:30;20.00;99.90
27858;DHT22;16852;51.446;6.528;2023-07-13T08:26:31;20.00;99.90
27858;DHT22;16852;51.446;6.528;2023-07-13T08:28:32;20.00;99.90
27858;DHT22;16852;51.446;6.528;2023-07-13T08:30:33;20.00;99.90
27858;DHT22;16852;51.446;6.528;2023-07-13T08:32:35;20.10;99.90
27858;DHT22;16852;51.446;6.528;2023-07-13T08:34:36;20.10;99.90
27858;DHT22;16852;51.446;6.528;2023-07-13T08:36:37;20.10;99.90
27858;DHT22;16852;51.446;6.528;2023-07-13T08:38:37;20.20;99.90
27858;DHT22;16852;51.446;6.528;2023-07-13T08:40:39;20.20;99.90
27858;DHT22;16852;51.446;6.528;2023-07-13T08:45:13;20.30;99.90
27858;DHT22;16852;51.446;6.528;2023-07-13T08:47:15;20.20;99.90
27858;DHT22;16852;51.446;6.528;2023-07-13T08:49:19;20.30;99.90
27858;DHT22;16852;51.446;6.528;2023-07-13T08:51:38;20.40;99.90
27858;DHT22;16852;51.446;6.528;2023-07-13T08:53:47;20.40;99.90
27858;DHT22;16852;51.446;6.528;2023-07-13T08:55:51;20.50;99.90
27858;DHT22;16852;51.446;6.528;2023-07-13T08:58:02;20.50;99.90
27858;DHT22;16852;51.446;6.528;2023-07-13T09:00:04;20.60;99.90
27858;DHT22;16852;51.446;6.528;2023-07-13T09:02:38;20.60;99.90
27858;DHT22;16852;51.446;6.528;2023-07-13T09:07:14;20.80;99.90
27858;DHT22;16852;51.446;6.528;2023-07-13T09:09:58;20.80;99.90
27858;DHT22;16852;51.446;6.528;2023-07-13T09:12:17;20.90;99.90
27858;DHT22;16852;51.446;6.528;2023-07-13T09:14:49;21.10;99.90
27858;DHT22;16852;51.446;6.528;2023-07-13T09:16:51;21.20;99.90
27858;DHT22;16852;51.446;6.528;2023-07-13T09:18:55;21.30;99.90
27858;DHT22;16852;51.446;6.528;2023-07-13T09:21:18;21.40;99.90
27858;DHT22;16852;51.446;6.528;2023-07-13T09:23:23;21.40;99.90
27858;DHT22;16852;51.446;6.528;2023-07-13T09:25:31;21.50;99.90
27858;DHT22;16852;51.446;6.528;2023-07-13T09:27:39;21.50;99.90
27858;DHT22;16852;51.446;6.528;2023-07-13T09:32:24;21.70;99.90
27858;DHT22;16852;51.446;6.528;2023-07-13T09:34:26;21.90;99.90
27858;DHT22;16852;51.446;6.528;2023-07-13T09:36:32;21.80;99.90
27858;DHT22;16852;51.446;6.528;2023-07-13T09:38:35;21.90;99.90
27858;DHT22;16852;51.446;6.528;2023-07-13T09:40:44;22.00;99.90
27858;DHT22;16852;51.446;6.528;2023-07-13T09:42:47;22.00;99.90
27858;DHT22;16852;51.446;6.528;2023-07-13T09:46:57;22.20;99.90
27858;DHT22;16852;51.446;6.528;2023-07-13T09:48:58;22.20;99.90
27858;DHT22;16852;51.446;6.528;2023-07-13T09:51:07;22.20;99.90
27858;DHT22;16852;51.446;6.528;2023-07-13T09:53:19;22.30;99.90
27858;DHT22;16852;51.446;6.528;2023-07-13T09:55:36;22.30;99.90
27858;DHT22;16852;51.446;6.528;2023-07-13T09:57:46;22.50;99.90
27858;DHT22;16852;51.446;6.528;2023-07-13T09:59:49;22.50;99.90
27858;DHT22;16852;51.446;6.528;2023-07-13T10:01:50;22.60;99.90
27858;DHT22;16852;51.446;6.528;2023-07-13T10:03:54;22.60;99.90
27858;DHT22;16852;51.446;6.528;2023-07-13T10:06:09;22.60;99.90
27858;DHT22;16852;51.446;6.528;2023-07-13T10:08:28;22.70;99.90
27858;DHT22;16852;51.446;6.528;2023-07-13T10:10:30;22.80;99.90
27858;DHT22;16852;51.446;6.528;2023-07-13T10:12:36;22.70;99.90
27858;DHT22;16852;51.446;6.528;2023-07-13T10:14:37;22.70;99.90
27858;DHT22;16852;51.446;6.528;2023-07-13T10:16:41;22.70;99.90
27858;DHT22;16852;51.446;6.528;2023-07-13T10:18:49;22.70;99.90
27858;DHT22;16852;51.446;6.528;2023-07-13T10:20:58;22.80;99.90
27858;DHT22;16852;51.446;6.528;2023-07-13T10:23:15;22.90;99.90
27858;DHT22;16852;51.446;6.528;2023-07-13T10:25:25;22.90;99.90
27858;DHT22;16852;51.446;6.528;2023-07-13T10:27:35;22.90;99.90
27858;DHT22;16852;51.446;6.528;2023-07-13T10:29:40;23.00;99.90
27858;DHT22;16852;51.446;6.528;2023-07-13T10:31:45;23.10;99.90
27858;DHT22;16852;51.446;6.528;2023-07-13T10:33:45;23.10;99.90
27858;DHT22;16852;51.446;6.528;2023-07-13T10:35:47;23.10;99.90
27858;DHT22;16852;51.446;6.528;2023-07-13T10:37:52;23.20;99.90
27858;DHT22;16852;51.446;6.528;2023-07-13T10:39:56;23.30;99.90
27858;DHT22;16852;51.446;6.528;2023-07-13T10:42:00;23.30;99.90
27858;DHT22;16852;51.446;6.528;2023-07-13T10:44:03;23.30;99.90
27858;DHT22;16852;51.446;6.528;2023-07-13T10:46:11;23.40;99.90
27858;DHT22;16852;51.446;6.528;2023-07-13T10:48:13;23.50;99.90
27858;DHT22;16852;51.446;6.528;2023-07-13T10:50:21;23.50;99.90
27858;DHT22;16852;51.446;6.528;2023-07-13T10:54:41;23.60;99.90
27858;DHT22;16852;51.446;6.528;2023-07-13T10:56:43;23.60;99.90
27858;DHT22;16852;51.446;6.528;2023-07-13T10:58:45;23.70;99.90
27858;DHT22;16852;51.446;6.528;2023-07-13T11:03:00;23.70;99.90
27858;DHT22;16852;51.446;6.528;2023-07-13T11:05:28;23.70;99.90
27858;DHT22;16852;51.446;6.528;2023-07-13T11:07:31;23.70;99.90
27858;DHT22;16852;51.446;6.528;2023-07-13T11:09:40;23.80;99.90
27858;DHT22;16852;51.446;6.528;2023-07-13T11:11:41;23.90;99.90
27858;DHT22;16852;51.446;6.528;2023-07-13T11:15:48;24.00;99.70
27858;DHT22;16852;51.446;6.528;2023-07-13T11:17:53;24.00;99.10
27858;DHT22;16852;51.446;6.528;2023-07-13T11:22:16;24.20;98.80
27858;DHT22;16852;51.446;6.528;2023-07-13T11:24:21;24.20;99.00
27858;DHT22;16852;51.446;6.528;2023-07-13T11:28:49;24.30;99.90
27858;DHT22;16852;51.446;6.528;2023-07-13T11:35:23;24.30;97.90
27858;DHT22;16852;51.446;6.528;2023-07-13T11:37:28;24.30;97.50
27858;DHT22;16852;51.446;6.528;2023-07-13T11:39:32;24.40;97.90
27858;DHT22;16852;51.446;6.528;2023-07-13T11:41:53;24.40;98.10
27858;DHT22;16852;51.446;6.528;2023-07-13T11:44:11;24.50;97.60
27858;DHT22;16852;51.446;6.528;2023-07-13T11:46:27;24.40;96.80
27858;DHT22;16852;51.446;6.528;2023-07-13T11:48:29;24.40;96.50
27858;DHT22;16852;51.446;6.528;2023-07-13T11:50:31;24.40;97.20
27858;DHT22;16852;51.446;6.528;2023-07-13T11:52:35;24.50;97.60
27858;DHT22;16852;51.446;6.528;2023-07-13T11:54:48;24.50;96.20
27858;DHT22;16852;51.446;6.528;2023-07-13T11:57:02;24.50;96.60
27858;DHT22;16852;51.446;6.528;2023-07-13T11:59:08;24.40;96.70
27858;DHT22;16852;51.446;6.528;2023-07-13T12:01:30;24.40;96.80
27858;DHT22;16852;51.446;6.528;2023-07-13T12:03:34;24.50;96.60
27858;DHT22;16852;51.446;6.528;2023-07-13T12:05:35;24.40;95.80
27858;DHT22;16852;51.446;6.528;2023-07-13T12:07:37;24.50;97.60
27858;DHT22;16852;51.446;6.528;2023-07-13T12:09:38;24.50;95.60
27858;DHT22;16852;51.446;6.528;2023-07-13T12:11:43;24.50;96.10
27858;DHT22;16852;51.446;6.528;2023-07-13T12:13:45;24.40;94.60
27858;DHT22;16852;51.446;6.528;2023-07-13T12:15:47;24.50;96.30
27858;DHT22;16852;51.446;6.528;2023-07-13T12:17:49;24.40;95.70
27858;DHT22;16852;51.446;6.528;2023-07-13T12:19:51;24.40;96.80
27858;DHT22;16852;51.446;6.528;2023-07-13T12:21:55;24.30;96.40
27858;DHT22;16852;51.446;6.528;2023-07-13T12:23:56;24.20;96.50
27858;DHT22;16852;51.446;6.528;2023-07-13T12:25:58;24.10;96.10
27858;DHT22;16852;51.446;6.528;2023-07-13T12:28:20;24.00;95.10
27858;DHT22;16852;51.446;6.528;2023-07-13T12:30:30;23.90;97.40
27858;DHT22;16852;51.446;6.528;2023-07-13T12:32:34;23.90;97.00
27858;DHT22;16852;51.446;6.528;2023-07-13T12:34:51;23.90;97.80
27858;DHT22;16852;51.446;6.528;2023-07-13T12:37:01;23.70;99.90
27858;DHT22;16852;51.446;6.528;2023-07-13T12:39:15;23.60;99.90
27858;DHT22;16852;51.446;6.528;2023-07-13T12:41:17;23.50;99.90
27858;DHT22;16852;51.446;6.528;2023-07-13T12:43:20;23.40;99.90
27858;DHT22;16852;51.446;6.528;2023-07-13T12:45:26;23.20;99.90
27858;DHT22;16852;51.446;6.528;2023-07-13T12:47:28;23.10;99.90
27858;DHT22;16852;51.446;6.528;2023-07-13T12:49:31;23.10;99.90
27858;DHT22;16852;51.446;6.528;2023-07-13T12:51:37;23.10;99.90
27858;DHT22;16852;51.446;6.528;2023-07-13T12:53:47;23.00;99.90
27858;DHT22;16852;51.446;6.528;2023-07-13T12:57:55;23.10;99.90
27858;DHT22;16852;51.446;6.528;2023-07-13T12:59:56;23.10;99.90
27858;DHT22;16852;51.446;6.528;2023-07-13T13:01:57;23.20;99.90
27858;DHT22;16852;51.446;6.528;2023-07-13T13:04:01;23.20;99.90
27858;DHT22;16852;51.446;6.528;2023-07-13T13:06:23;23.20;99.90
27858;DHT22;16852;51.446;6.528;2023-07-13T13:08:24;23.40;99.90
27858;DHT22;16852;51.446;6.528;2023-07-13T13:10:24;23.40;99.90
27858;DHT22;16852;51.446;6.528;2023-07-13T13:12:26;23.50;99.90
27858;DHT22;16852;51.446;6.528;2023-07-13T13:14:27;23.50;99.90
27858;DHT22;16852;51.446;6.528;2023-07-13T13:16:37;23.60;99.90
27858;DHT22;16852;51.446;6.528;2023-07-13T13:18:39;23.70;99.90
27858;DHT22;16852;51.446;6.528;2023-07-13T13:20:40;23.80;99.90
27858;DHT22;16852;51.446;6.528;2023-07-13T13:22:41;23.80;99.90
27858;DHT22;16852;51.446;6.528;2023-07-13T13:24:42;23.80;99.90
27858;DHT22;16852;51.446;6.528;2023-07-13T13:26:43;23.90;99.40